Share

Greenwood, Nova Scotia

Greenwood (CYZX) Elev 92 ft | 44.98 °N, 64.91 °W | Change Station

Current weather conditions updated 15 minutes ago

Mostly Cloudy
Mostly Cloudy
48 °F
Feels Like 48 °F
N
9
Wind Variable Wind from East
Sunrise 6:29 AM
Sunset 8:08 PM
Moon Waning Gibbous

Today is forecast to be Much Warmer than yesterday.

Pressure 30.52 in
Visibility 15.0 miles
Clouds Mostly Cloudy 25000 ft
Dew Point 25 °F
Humidity 40%
Rainfall 0.00 in
Snow Depth Not available.
UV 5 out of 16
Pollen Not available.
Air Quality Not available.
Flu Activity Not available.
METAR CYZX 181600Z 09008KT 15SM BKN250 09/M04 A3051 RMK CI2 WNDY HILL 09008KT SLP334

More Conditions Fewer Conditions

Pressure 30.52 in
Visibility 15.0 miles
Clouds Mostly Cloudy 25000 ft
Dew Point 25 °F
Humidity 40%
Rainfall 0.00 in
Snow Depth Not available.
UV 5 out of 16
Pollen Not available.
Air Quality Not available.
Flu Activity Not available.
METAR CYZX 181600Z 09008KT 15SM BKN250 09/M04 A3051 RMK CI2 WNDY HILL 09008KT SLP334

More Conditions Fewer Conditions

10-Day Forecast

Almanac

Astronomy

Apr. 18, 2014 Rise Set
Actual Time 6:29 AM ADT 8:08 PM ADT
Civil Twilight 5:59 AM ADT 8:39 PM ADT
Nautical Twilight 5:21 AM ADT 9:17 PM ADT
Astronomical Twilight 4:41 AM ADT 9:58 PM ADT
Moon 11:56 PM ADT 8:42 AM ADT
Length of Visible Light 14h 40m
Length of Day
13h 38m
Tomorrow will be 2m 57s longer.
Waning Gibbous, 87% of the Moon is Illuminated
Today
Waning Gibbous
Apr 22
Last Quarter
Apr 29
New
May 6
First Quarter
May 14
Full

Today's Extremes

Country Highs Country Lows

Community

  • What's for Lunch?
    What's for Lunch?
  • SUNRISE THROUGH THE TREES.
    SUNRISE THROUGH THE TREES.
  • Dog Wood Blossoms
    Dog Wood Blossoms
  • Morning Light
    Morning Light
  • New Day
    New Day

WunderPhotos

Upload Photos

1,702,401 photos uploaded!

Nearby

Snow Depth

Not available.

Coastal Water Temperatures

Place Temperature
No Stations Reporting

Earthquake Activity

City Distance Mag. Time & Date
No recent earthquake activity has been reported nearby.
Minimum magnitude displayed is 2.5.

Nearby Weather Stations

Station Location Temp. Windchill Dew Point Humidity Wind Precip. Elev Updated Type
Kingston 47.0 °F 45 °F 19 °F 33% ESE  at  4.0 mph 0.00 in / hr 105 ft 1:10 PM ADT Normal
Woodville-Lakeville, Brooklyn Corner 49.0 °F 47 °F 28 °F 43% ESE  at  5.0 mph 0.00 in / hr 75 ft 1:15 PM ADT Normal
Coldbrook, Coldbrook 51.6 °F - 26 °F 37% ESE  at  5.4 mph 0.00 in / hr 75 ft 1:13 PM ADT Normal
Paradise Nova Scotia, Paradise 56.5 °F - 28 °F 33% SE  at  6.0 mph 0.00 in / hr 52 ft 1:15 PM ADT Rapid Fire
North Kentville, Kentville 45.7 °F 40 °F 29 °F 52% ESE  at  11.0 mph 0.00 in / hr 72 ft 1:15 PM ADT Rapid Fire

Show More Stations Show Fewer Stations

What do you think?

We're not finished. Please let us know what you like, what you don't like, and what you are still missing.